Time;durP1;ratioP1;P1;durP2;ratioP2;P2;SDS_P1;SDS_P2;PMS_P1;PMS_P2;Temp;Humidity;BMP_temperature;BMP_pressure;BME280_temperature;BME280_humidity;BME280_pressure;Samples;Min_cycle;Max_cycle;Signal;HPM_P1;HPM_P2
2021/09/06 00:01:25;;;;;;;;;2.00;2.00;;;;;11.06;74.67;100385.38;6786900;19;2751232;-60
2021/09/06 00:03:54;;;;;;;;;2.00;2.00;;;;;11.13;74.64;100382.28;6768396;19;1815908;-59
2021/09/06 00:06:22;;;;;;;;;2.00;1.00;;;;;11.20;74.44;100389.06;6808031;19;1809640;-59
2021/09/06 00:08:51;;;;;;;;;3.00;2.00;;;;;11.10;75.10;100395.88;6804162;19;1815883;-59
2021/09/06 00:11:19;;;;;;;;;2.33;1.00;;;;;10.72;76.64;100392.50;6812247;19;1805420;-59
2021/09/06 00:13:49;;;;;;;;;2.00;2.00;;;;;10.83;76.74;100394.66;6802072;19;1805476;-59
2021/09/06 00:16:18;;;;;;;;;2.00;2.00;;;;;10.38;78.12;100399.56;6786926;19;3452256;-58
2021/09/06 00:18:45;;;;;;;;;2.00;2.00;;;;;10.24;78.63;100394.84;6749510;19;2745995;-59
2021/09/06 00:21:13;;;;;;;;;2.00;2.00;;;;;10.06;79.90;100403.78;6752560;19;2753286;-58
2021/09/06 00:23:41;;;;;;;;;1.00;1.00;;;;;10.35;78.97;100399.72;6750890;19;3429321;-58
2021/09/06 00:26:10;;;;;;;;;3.75;3.00;;;;;10.14;79.21;100401.59;6768541;19;1818020;-58
2021/09/06 00:28:38;;;;;;;;;3.00;1.75;;;;;10.32;79.02;100400.75;6801013;19;1807503;-58
2021/09/06 00:31:06;;;;;;;;;2.33;1.00;;;;;9.95;79.96;100396.22;6784227;19;3422037;-59
2021/09/06 00:33:35;;;;;;;;;3.00;3.00;;;;;10.02;79.97;100399.50;6767531;19;1820138;-59
2021/09/06 00:36:02;;;;;;;;;2.00;2.00;;;;;10.05;80.82;100391.28;6784540;19;2753310;-59
2021/09/06 00:38:31;;;;;;;;;2.00;2.00;;;;;10.40;78.60;100391.41;6767040;19;1807499;-58
2021/09/06 00:40:59;;;;;;;;;2.00;2.00;;;;;10.05;80.58;100391.28;6802446;19;1805419;-59
2021/09/06 00:43:28;;;;;;;;;2.75;2.75;;;;;9.94;80.97;100390.94;6799454;19;1820060;-59
2021/09/06 00:45:57;;;;;;;;;2.00;2.00;;;;;10.09;79.46;100387.53;6801370;19;1816933;-59
2021/09/06 00:48:27;;;;;;;;;2.00;2.00;;;;;10.28;79.03;100387.53;6803229;19;1809606;-59
2021/09/06 00:50:55;;;;;;;;;4.00;2.00;;;;;10.18;79.61;100376.34;6784201;19;2748094;-59
2021/09/06 00:53:23;;;;;;;;;1.00;1.00;;;;;10.09;80.17;100374.97;6749078;19;3434622;-59
2021/09/06 00:55:51;;;;;;;;;3.00;2.00;;;;;10.02;80.50;100372.66;6769465;19;1821117;-58
2021/09/06 00:58:22;;;;;;;;;3.00;2.00;;;;;9.70;81.46;100376.88;6798159;19;1811685;-59
2021/09/06 01:00:50;;;;;;;;;3.75;3.00;;;;;9.49;82.63;100376.94;6798230;19;1823182;-59
2021/09/06 01:03:19;;;;;;;;;3.00;1.25;;;;;10.03;80.72;100377.06;6805339;19;1805481;-59
2021/09/06 01:05:48;;;;;;;;;3.00;3.00;;;;;9.58;82.84;100376.50;6800639;19;1817943;-59
2021/09/06 01:08:16;;;;;;;;;2.00;2.00;;;;;9.51;82.51;100375.06;6802332;19;1811682;-59
2021/09/06 01:10:45;;;;;;;;;2.00;2.00;;;;;9.73;81.77;100385.66;6799914;19;1817932;-59
2021/09/06 01:13:12;;;;;;;;;2.00;2.00;;;;;9.41;83.44;100379.97;6780615;19;3463683;-59
2021/09/06 01:15:42;;;;;;;;;2.50;2.50;;;;;9.38;83.37;100384.59;6766793;19;1813845;-59
2021/09/06 01:18:11;;;;;;;;;3.00;3.00;;;;;9.43;83.64;100383.44;6802030;19;1822141;-59
2021/09/06 01:20:39;;;;;;;;;2.00;2.00;;;;;9.67;82.27;100370.72;6799175;19;1817979;-59
2021/09/06 01:23:10;;;;;;;;;2.00;2.00;;;;;9.39;84.06;100380.97;6803927;19;1817942;-59
2021/09/06 01:25:38;;;;;;;;;3.00;3.00;;;;;8.97;85.44;100369.41;6800527;19;1817939;-58
2021/09/06 01:28:07;;;;;;;;;3.00;3.00;;;;;9.19;85.54;100373.84;6798131;19;1816873;-58
2021/09/06 01:30:37;;;;;;;;;2.00;1.00;;;;;9.37;83.89;100370.34;6802244;19;1807503;-59
2021/09/06 01:33:05;;;;;;;;;2.00;2.00;;;;;9.09;84.48;100378.75;6782146;19;2744966;-59
2021/09/06 01:35:33;;;;;;;;;1.00;1.00;;;;;8.66;86.93;100369.00;6770568;19;1807561;-59
2021/09/06 01:38:05;;;;;;;;;2.00;2.00;;;;;9.39;84.86;100370.25;6822913;19;2587704;-59
2021/09/06 01:40:34;;;;;;;;;4.25;2.00;;;;;9.43;83.60;100370.06;6797832;19;1819090;-59
2021/09/06 01:43:02;;;;;;;;;4.25;3.00;;;;;9.48;83.17;100374.31;6799718;19;1816940;-59
2021/09/06 01:45:31;;;;;;;;;3.00;3.00;;;;;9.16;84.87;100377.53;6799746;19;1806457;-59
2021/09/06 01:47:59;;;;;;;;;1.25;1.25;;;;;9.22;84.76;100379.06;6800386;19;1807507;-59
2021/09/06 01:50:27;;;;;;;;;5.50;2.00;;;;;8.82;86.17;100380.84;6800354;19;1811649;-58
2021/09/06 01:52:56;;;;;;;;;2.75;2.00;;;;;8.52;88.12;100373.16;6802475;19;1811700;-59
2021/09/06 01:55:24;;;;;;;;;4.00;3.00;;;;;8.16;88.88;100369.28;6800771;19;1814885;-59
2021/09/06 01:57:54;;;;;;;;;2.00;2.00;;;;;8.26;89.89;100376.00;6827120;19;2726224;-59
2021/09/06 02:00:22;;;;;;;;;4.00;2.67;;;;;8.45;88.38;100377.03;6747202;19;3448058;-59
2021/09/06 02:02:50;;;;;;;;;4.00;2.00;;;;;8.50;87.91;100374.16;6805386;19;1815874;-59
2021/09/06 02:05:19;;;;;;;;;2.00;2.00;;;;;8.57;86.95;100372.97;6809397;19;1821083;-59
2021/09/06 02:07:46;;;;;;;;;4.00;2.00;;;;;8.42;88.40;100377.13;6785913;19;3438691;-59
2021/09/06 02:10:15;;;;;;;;;2.00;2.00;;;;;7.88;89.72;100370.41;6807639;19;1815859;-58
2021/09/06 02:12:42;;;;;;;;;3.00;2.50;;;;;7.87;90.74;100379.34;6786930;19;2752253;-59
2021/09/06 02:15:11;;;;;;;;;4.25;2.75;;;;;7.91;90.49;100375.63;6805907;19;1812711;-59
2021/09/06 02:17:39;;;;;;;;;5.75;3.00;;;;;8.33;88.71;100378.38;6805698;19;1813751;-59
2021/09/06 02:20:08;;;;;;;;;3.50;3.00;;;;;8.48;87.63;100384.94;6805487;19;1812710;-58
2021/09/06 02:22:36;;;;;;;;;3.00;3.00;;;;;8.26;88.46;100389.38;6786227;19;3453270;-59
2021/09/06 02:25:04;;;;;;;;;1.00;1.00;;;;;8.72;86.62;100391.06;6787695;19;3438691;-59
2021/09/06 02:27:32;;;;;;;;;2.25;2.00;;;;;8.20;88.32;100381.63;6804158;19;1813799;-59
2021/09/06 02:30:00;;;;;;;;;7.33;3.00;;;;;7.95;89.89;100381.72;6786217;19;3449135;-59
2021/09/06 02:32:28;;;;;;;;;2.25;2.25;;;;;7.94;89.73;100386.19;6805188;19;1820042;-58
2021/09/06 02:34:56;;;;;;;;;3.75;3.00;;;;;8.08;89.87;100396.34;6805401;19;1813749;-59
2021/09/06 02:37:25;;;;;;;;;3.50;3.50;;;;;8.13;89.83;100389.88;6807466;19;1820050;-59
2021/09/06 02:39:53;;;;;;;;;3.25;3.00;;;;;7.96;90.43;100388.81;6808683;19;1813780;-58
2021/09/06 02:42:21;;;;;;;;;3.33;3.00;;;;;7.91;90.46;100383.66;6784576;19;3453358;-58
2021/09/06 02:44:49;;;;;;;;;4.00;2.25;;;;;7.82;91.28;100382.22;6808217;19;1808530;-59
2021/09/06 02:47:17;;;;;;;;;2.00;2.00;;;;;7.81;91.52;100379.59;6807349;19;1811673;-59
2021/09/06 02:49:45;;;;;;;;;3.50;2.00;;;;;7.83;90.62;100388.44;6803942;19;1817931;-59
2021/09/06 02:52:13;;;;;;;;;3.00;3.00;;;;;8.57;87.86;100386.34;6788753;19;3442874;-58
2021/09/06 02:54:41;;;;;;;;;2.00;2.00;;;;;8.61;86.54;100393.31;6808893;19;1813757;-59
2021/09/06 02:57:09;;;;;;;;;2.00;2.00;;;;;8.05;88.66;100389.31;6807586;19;1808593;-58
2021/09/06 02:59:38;;;;;;;;;4.50;4.00;;;;;8.64;87.82;100395.00;6802990;19;1810621;-59
2021/09/06 03:02:05;;;;;;;;;2.00;2.00;;;;;8.01;89.54;100381.50;6789011;19;3443899;-58
2021/09/06 03:04:34;;;;;;;;;5.75;3.25;;;;;8.05;90.49;100381.28;6802863;19;1812739;-59
2021/09/06 03:07:03;;;;;;;;;3.75;3.00;;;;;7.76;90.64;100393.13;6805305;19;1823186;-58
2021/09/06 03:09:31;;;;;;;;;3.67;3.00;;;;;7.94;90.51;100385.34;6787403;19;3456439;-58
2021/09/06 03:12:00;;;;;;;;;3.00;3.00;;;;;8.14;90.27;100382.75;6803236;19;1823192;-59
2021/09/06 03:14:29;;;;;;;;;3.75;3.00;;;;;7.80;90.36;100383.22;6803035;19;1823187;-59
2021/09/06 03:16:58;;;;;;;;;3.75;2.00;;;;;7.56;92.03;100383.22;6806598;19;1820040;-58
2021/09/06 03:19:26;;;;;;;;;3.00;3.00;;;;;7.52;92.37;100381.56;6783606;19;3434569;-59
2021/09/06 03:21:54;;;;;;;;;3.50;3.25;;;;;7.68;90.16;100384.53;6805453;19;1810681;-59
2021/09/06 03:24:23;;;;;;;;;3.00;3.00;;;;;7.58;91.57;100386.72;6804154;19;1819034;-59
2021/09/06 03:26:51;;;;;;;;;2.75;2.75;;;;;7.76;91.32;100381.56;6804052;19;1820016;-59
2021/09/06 03:29:19;;;;;;;;;3.00;3.00;;;;;7.75;90.63;100385.19;6805223;19;1816881;-59
2021/09/06 03:31:47;;;;;;;;;4.67;3.00;;;;;7.79;91.14;100382.31;6781529;19;3454034;-59
2021/09/06 03:34:15;;;;;;;;;2.50;2.50;;;;;7.68;91.02;100387.22;6807031;19;1821106;-59
2021/09/06 03:36:43;;;;;;;;;4.00;3.00;;;;;7.72;91.43;100387.97;6805943;19;1818972;-58
2021/09/06 03:39:12;;;;;;;;;4.00;3.00;;;;;7.52;91.18;100386.91;6806995;19;1811673;-59
2021/09/06 03:41:40;;;;;;;;;3.00;2.00;;;;;7.64;90.66;100388.28;6799511;19;1816917;-59
2021/09/06 03:44:08;;;;;;;;;5.25;3.00;;;;;8.29;88.44;100386.56;6803314;19;1809609;-59
2021/09/06 03:46:36;;;;;;;;;6.33;2.33;;;;;7.54;91.12;100389.53;6786766;19;3446030;-58
2021/09/06 03:49:05;;;;;;;;;6.50;3.00;;;;;7.72;90.30;100393.31;6806152;19;1812730;-58
2021/09/06 03:51:33;;;;;;;;;5.50;3.00;;;;;7.74;90.96;100395.00;6805798;19;1814816;-58
2021/09/06 03:54:02;;;;;;;;;4.00;3.00;;;;;7.84;89.64;100398.19;6806213;19;1818957;-59
2021/09/06 03:56:30;;;;;;;;;3.00;3.00;;;;;7.58;91.55;100393.81;6805188;19;1815852;-58
2021/09/06 03:58:58;;;;;;;;;4.00;4.00;;;;;7.64;91.82;100399.81;6804634;19;1822138;-59
2021/09/06 04:01:27;;;;;;;;;7.00;4.00;;;;;7.57;92.03;100392.97;6801305;19;1817903;-59
2021/09/06 04:03:55;;;;;;;;;4.25;2.00;;;;;7.52;90.68;100394.94;6802738;19;1821120;-59
2021/09/06 04:06:24;;;;;;;;;3.25;2.75;;;;;7.26;92.11;100394.09;6802899;19;1821087;-59
2021/09/06 04:08:52;;;;;;;;;4.00;4.00;;;;;7.31;92.02;100399.28;6803075;19;1820061;-59
2021/09/06 04:11:19;;;;;;;;;6.50;4.00;;;;;7.44;91.64;100399.69;6784212;19;2751259;-59
2021/09/06 04:13:48;;;;;;;;;6.00;4.00;;;;;7.43;91.36;100397.97;6802206;19;1821054;-58
2021/09/06 04:16:16;;;;;;;;;7.00;4.00;;;;;7.67;90.47;100394.38;6809508;19;1818978;-59
2021/09/06 04:18:44;;;;;;;;;7.50;4.00;;;;;7.68;91.19;100401.44;6784192;19;2752336;-58
2021/09/06 04:21:11;;;;;;;;;3.50;3.50;;;;;7.87;90.87;100400.72;6782749;19;2746046;-59
2021/09/06 04:23:42;;;;;;;;;4.50;3.25;;;;;7.60;91.49;100398.19;6805964;19;1812711;-59
2021/09/06 04:26:10;;;;;;;;;8.50;6.00;;;;;8.04;88.71;100403.63;6800118;19;1818989;-59
2021/09/06 04:28:40;;;;;;;;;3.50;3.50;;;;;7.73;89.89;100403.06;6780146;19;2738747;-58
2021/09/06 04:31:11;;;;;;;;;6.00;3.25;;;;;7.76;90.17;100408.28;6828678;19;2583514;-58
2021/09/06 04:33:39;;;;;;;;;3.00;3.00;;;;;8.40;88.64;100411.16;6767651;19;1811665;-59
2021/09/06 04:36:07;;;;;;;;;6.00;4.00;;;;;8.45;87.62;100418.97;6781898;19;2752260;-58
2021/09/06 04:38:35;;;;;;;;;7.25;4.50;;;;;8.64;87.88;100417.28;6799862;19;1810658;-58
2021/09/06 04:41:03;;;;;;;;;9.50;5.00;;;;;8.82;87.05;100418.31;6784046;19;2764760;-58
2021/09/06 04:43:31;;;;;;;;;4.00;4.00;;;;;8.69;87.81;100422.41;6799267;19;1819383;-58
2021/09/06 04:46:00;;;;;;;;;4.00;4.00;;;;;8.69;88.61;100423.31;6800916;19;1810670;-59
2021/09/06 04:48:28;;;;;;;;;8.50;4.25;;;;;9.10;86.57;100422.47;6802598;19;1811669;-58
2021/09/06 04:50:56;;;;;;;;;7.50;4.75;;;;;8.73;87.72;100419.56;6801628;19;1810671;-59
2021/09/06 04:53:25;;;;;;;;;9.50;5.00;;;;;8.81;88.09;100424.59;6801015;19;1806489;-58
2021/09/06 04:55:53;;;;;;;;;8.25;4.25;;;;;8.62;88.13;100429.00;6798490;19;1821100;-58
2021/09/06 04:58:21;;;;;;;;;7.50;5.00;;;;;8.92;88.04;100427.66;6799307;19;1807503;-58
2021/09/06 05:00:50;;;;;;;;;9.00;7.00;;;;;8.89;88.03;100430.47;6800918;19;1816866;-58
2021/09/06 05:03:17;;;;;;;;;8.50;7.00;;;;;9.01;87.58;100431.78;6782154;19;2736636;-58
2021/09/06 05:05:46;;;;;;;;;1.75;1.75;;;;;9.16;85.80;100435.59;6803245;19;1810700;-58
2021/09/06 05:08:14;;;;;;;;;9.50;8.00;;;;;9.06;86.73;100443.16;6779224;19;2752265;-58
2021/09/06 05:10:44;;;;;;;;;20.50;16.33;;;;;9.07;86.48;100446.72;6804545;19;2811981;-58
2021/09/06 05:13:12;;;;;;;;;17.00;14.50;;;;;9.32;85.92;100443.81;6784851;19;2788761;-58
2021/09/06 05:15:41;;;;;;;;;14.67;11.33;;;;;9.53;84.88;100442.00;6742198;19;3515798;-59
2021/09/06 05:18:10;;;;;;;;;13.67;13.67;;;;;9.67;85.12;100444.94;6777206;19;2796041;-58
2021/09/06 05:20:39;;;;;;;;;16.50;11.00;;;;;9.77;84.09;100446.25;6782387;19;2792892;-58
2021/09/06 05:23:07;;;;;;;;;12.00;10.33;;;;;9.88;82.93;100446.63;6744746;19;2793953;-58
2021/09/06 05:25:37;;;;;;;;;9.80;9.20;;;;;10.09;83.21;100441.19;6807106;19;2750165;-59
2021/09/06 05:28:06;;;;;;;;;8.75;7.50;;;;;10.57;81.50;100439.78;6799781;19;1813852;-59
2021/09/06 05:30:34;;;;;;;;;6.00;5.00;;;;;10.84;79.18;100450.09;6785647;19;2743951;-59
2021/09/06 05:33:03;;;;;;;;;5.75;5.00;;;;;10.88;78.95;100452.56;6766074;19;1812730;-58
2021/09/06 05:35:30;;;;;;;;;4.00;4.00;;;;;10.85;78.90;100446.44;6780005;19;2747076;-59
2021/09/06 05:37:58;;;;;;;;;5.00;5.00;;;;;11.02;78.57;100457.22;6747229;19;2746003;-58
2021/09/06 05:40:26;;;;;;;;;4.75;4.00;;;;;11.04;78.93;100452.66;6773672;19;1817016;-59
2021/09/06 05:42:55;;;;;;;;;4.00;3.00;;;;;11.43;74.15;100454.22;6804606;19;1808536;-58
2021/09/06 05:45:23;;;;;;;;;1.75;1.75;;;;;11.60;75.56;100456.88;6807371;19;1804377;-59
2021/09/06 05:47:51;;;;;;;;;4.00;4.00;;;;;11.56;74.50;100454.44;6786624;19;2753322;-60
2021/09/06 05:50:19;;;;;;;;;6.50;6.50;;;;;11.55;74.61;100458.94;6754430;19;2743953;-58
2021/09/06 05:52:47;;;;;;;;;5.00;5.00;;;;;11.87;71.71;100453.66;6757400;19;2750161;-58
2021/09/06 05:55:15;;;;;;;;;3.00;3.00;;;;;12.12;72.14;100457.72;6773220;19;1812799;-59
2021/09/06 05:57:43;;;;;;;;;4.00;4.00;;;;;12.44;70.92;100461.28;6787899;19;2749164;-59
2021/09/06 06:00:11;;;;;;;;;2.75;2.75;;;;;14.01;65.28;100466.28;6772543;19;1808584;-59
2021/09/06 06:02:40;;;;;;;;;5.00;2.75;;;;;13.71;67.39;100472.59;6805415;19;1809672;-59
2021/09/06 06:05:09;;;;;;;;;2.00;2.00;;;;;13.32;66.81;100466.03;6786341;19;2739753;-59
2021/09/06 06:07:41;;;;;;;;;2.00;2.00;;;;;14.85;63.87;100468.91;6753034;19;2754731;-59
2021/09/06 06:10:10;;;;;;;;;2.00;2.00;;;;;15.73;60.12;100471.91;6771913;19;1809696;-60
2021/09/06 06:12:38;;;;;;;;;4.00;2.50;;;;;16.79;56.25;100472.38;6788415;19;2739765;-59
2021/09/06 06:15:06;;;;;;;;;2.00;2.00;;;;;17.69;54.04;100489.03;6757158;19;2732139;-59
2021/09/06 06:17:34;;;;;;;;;4.00;3.00;;;;;15.92;57.60;100476.03;6757718;19;2726204;-59
2021/09/06 06:20:02;;;;;;;;;4.00;2.00;;;;;14.64;62.34;100479.31;6754144;19;2748117;-59
2021/09/06 06:22:29;;;;;;;;;2.50;2.00;;;;;14.88;61.68;100476.81;6754994;19;2750191;-60
2021/09/06 06:24:57;;;;;;;;;2.00;2.00;;;;;14.07;65.05;100479.38;6760995;19;2739775;-59
2021/09/06 06:27:24;;;;;;;;;2.00;2.00;;;;;15.03;62.00;100480.31;6759649;19;2744386;-59
2021/09/06 06:29:52;;;;;;;;;4.00;2.00;;;;;15.50;59.14;100476.19;6758947;19;2748153;-61
2021/09/06 06:32:19;;;;;;;;;3.00;3.00;;;;;18.10;53.61;100493.03;6760781;19;2740795;-61
2021/09/06 06:34:47;;;;;;;;;4.00;3.00;;;;;20.91;44.26;100498.09;6758311;19;2753355;-61
2021/09/06 06:37:15;;;;;;;;;4.33;2.00;;;;;22.08;41.39;100502.47;6756162;19;2753336;-60
2021/09/06 06:39:43;;;;;;;;;3.00;1.00;;;;;19.18;46.62;100495.09;6792598;19;2734569;-63
2021/09/06 06:42:11;;;;;;;;;3.00;3.00;;;;;21.16;42.28;100500.25;6793743;19;2739753;-63
2021/09/06 06:44:40;;;;;;;;;2.00;1.00;;;;;16.53;51.83;100492.41;6809996;19;1796098;-62
2021/09/06 06:47:07;;;;;;;;;2.00;1.00;;;;;16.00;54.87;100490.75;6791656;19;2731447;-62
2021/09/06 06:49:36;;;;;;;;;1.50;1.00;;;;;15.30;57.31;100490.25;6777147;19;1801336;-61
2021/09/06 06:52:04;;;;;;;;;2.75;1.50;;;;;15.83;57.32;100488.41;6806687;19;1800272;-61
2021/09/06 06:54:33;;;;;;;;;4.00;1.25;;;;;15.95;56.75;100492.91;6808347;19;1803375;-60
2021/09/06 06:57:01;;;;;;;;;2.50;2.00;;;;;15.73;57.12;100500.84;6808434;19;1801272;-61
2021/09/06 06:59:29;;;;;;;;;2.00;2.00;;;;;16.10;55.97;100506.38;6789480;19;2750182;-60
2021/09/06 07:01:56;;;;;;;;;1.00;1.00;;;;;16.72;55.17;100509.06;6759342;19;2733534;-60
2021/09/06 07:04:25;;;;;;;;;1.25;1.00;;;;;16.14;54.00;100508.75;6777254;19;1798156;-60
2021/09/06 07:06:53;;;;;;;;;1.00;1.00;;;;;16.46;51.88;100514.53;6809182;19;1803366;-59
2021/09/06 07:09:21;;;;;;;;;2.00;1.00;;;;;16.64;51.36;100512.34;6792108;19;2728318;-61
2021/09/06 07:11:48;;;;;;;;;2.00;2.00;;;;;16.76;50.86;100515.97;6762849;19;2733500;-61
2021/09/06 07:14:15;;;;;;;;;2.00;2.00;;;;;16.40;51.00;100508.69;6758881;19;2744980;-60
2021/09/06 07:16:43;;;;;;;;;2.00;1.00;;;;;16.66;51.60;100514.91;6756880;19;2728659;-61
2021/09/06 07:19:10;;;;;;;;;1.00;1.00;;;;;16.61;50.56;100522.53;6758609;19;2738735;-59
2021/09/06 07:21:38;;;;;;;;;3.00;2.00;;;;;16.87;49.45;100517.91;6758368;19;2748457;-59
2021/09/06 07:24:07;;;;;;;;;1.50;1.00;;;;;21.01;39.50;100534.44;6774181;19;1801325;-59
2021/09/06 07:26:35;;;;;;;;;2.00;2.00;;;;;22.31;36.91;100535.84;6790011;19;2741891;-59
2021/09/06 07:29:03;;;;;;;;;3.00;2.00;;;;;17.75;46.20;100526.56;6760613;19;2733547;-59
2021/09/06 07:31:30;;;;;;;;;3.00;1.00;;;;;17.57;46.91;100533.41;6758078;19;2725198;-60
2021/09/06 07:33:58;;;;;;;;;1.00;1.00;;;;;17.57;46.64;100530.72;6760119;19;2728292;-60
2021/09/06 07:36:25;;;;;;;;;2.00;2.00;;;;;17.75;47.55;100529.28;6760908;19;2748078;-60
2021/09/06 07:38:54;;;;;;;;;1.00;1.00;;;;;17.73;46.87;100544.81;6777008;19;1801802;-60
2021/09/06 07:41:21;;;;;;;;;3.00;1.00;;;;;17.78;46.55;100536.31;6789131;19;2750197;-61
2021/09/06 07:43:53;;;;;;;;;1.00;1.00;;;;;18.34;45.56;100541.00;6804915;19;3456458;-61
2021/09/06 07:46:21;;;;;;;;;2.00;2.00;;;;;18.60;44.83;100549.75;6788551;19;2751230;-61
2021/09/06 07:48:48;;;;;;;;;1.00;1.00;;;;;18.20;44.21;100540.25;6766520;19;2727238;-60
2021/09/06 07:51:18;;;;;;;;;1.00;1.00;;;;;18.24;44.07;100548.16;6766543;19;2724123;-61
2021/09/06 07:53:46;;;;;;;;;2.00;2.00;;;;;18.26;44.04;100543.47;6788474;19;2741836;-60
2021/09/06 07:56:14;;;;;;;;;3.00;2.00;;;;;18.83;44.72;100556.09;6788379;19;2746042;-60
2021/09/06 07:58:43;;;;;;;;;3.00;3.00;;;;;18.64;44.78;100551.22;6784099;19;2749155;-61
2021/09/06 08:01:11;;;;;;;;;2.00;2.00;;;;;18.99;42.63;100556.53;6787112;19;2739749;-60
2021/09/06 08:03:40;;;;;;;;;2.00;2.00;;;;;18.80;43.53;100556.31;6787833;19;2748078;-59
2021/09/06 08:06:08;;;;;;;;;3.67;2.33;;;;;19.34;43.50;100554.56;6787438;19;2750161;-59
2021/09/06 08:08:36;;;;;;;;;2.00;2.00;;;;;19.14;44.24;100551.69;6786924;19;2748086;-59
2021/09/06 08:11:04;;;;;;;;;2.00;2.00;;;;;19.52;42.13;100559.31;6788070;19;2741840;-59
2021/09/06 08:13:33;;;;;;;;;2.00;2.00;;;;;18.29;43.36;100551.38;6792147;19;2736659;-58
2021/09/06 08:16:01;;;;;;;;;2.00;2.00;;;;;19.37;42.93;100560.63;6787902;19;2745998;-59
2021/09/06 08:18:29;;;;;;;;;1.67;1.67;;;;;18.94;42.16;100561.50;6788242;19;2737670;-58
2021/09/06 08:20:57;;;;;;;;;2.67;2.67;;;;;19.87;41.76;100568.22;6787183;19;2735594;-59
2021/09/06 08:23:25;;;;;;;;;3.00;3.00;;;;;19.88;39.90;100562.66;6790564;19;2739764;-59
2021/09/06 08:25:54;;;;;;;;;2.33;2.00;;;;;19.36;41.12;100564.34;6787659;19;2741880;-58
2021/09/06 08:28:22;;;;;;;;;4.00;2.00;;;;;19.40;40.48;100565.81;6785515;19;2748110;-58
2021/09/06 08:30:50;;;;;;;;;2.67;2.00;;;;;20.20;40.42;100564.44;6790701;19;2739749;-58
2021/09/06 08:33:18;;;;;;;;;6.00;2.33;;;;;20.07;40.73;100561.06;6788829;19;2742870;-59
2021/09/06 08:35:47;;;;;;;;;3.67;3.00;;;;;19.82;40.25;100571.34;6790667;19;2725163;-58
2021/09/06 08:38:16;;;;;;;;;3.67;3.00;;;;;20.07;41.26;100563.78;6786253;19;2737686;-58
2021/09/06 08:40:45;;;;;;;;;2.00;2.00;;;;;20.55;40.08;100566.78;6786889;19;2742961;-59
2021/09/06 08:43:14;;;;;;;;;1.00;1.00;;;;;20.08;39.92;100565.50;6789730;19;2729360;-59
2021/09/06 08:45:45;;;;;;;;;2.00;2.00;;;;;20.36;40.48;100562.06;6787297;19;2741863;-59
2021/09/06 08:48:13;;;;;;;;;2.00;2.00;;;;;20.76;38.94;100565.84;6783463;19;2746023;-59
2021/09/06 08:50:42;;;;;;;;;2.67;2.67;;;;;20.54;39.40;100573.25;6786301;19;2736628;-59
2021/09/06 08:53:10;;;;;;;;;3.00;3.00;;;;;20.69;39.09;100573.72;6787297;19;2733491;-59
2021/09/06 08:55:39;;;;;;;;;2.67;2.00;;;;;20.68;39.51;100572.00;6785876;19;2750184;-59
2021/09/06 08:58:28;;;;;;;;;3.00;2.00;;;;;20.93;39.15;100569.78;6784750;19;2744969;-60
2021/09/06 09:00:57;;;;;;;;;2.00;2.00;;;;;21.15;38.53;100566.81;6787070;19;2739761;-60
2021/09/06 09:03:26;;;;;;;;;1.33;1.33;;;;;21.29;37.83;100568.25;6786761;19;2741832;-59
2021/09/06 09:06:05;;;;;;;;;3.60;3.60;;;;;21.34;38.55;100570.56;6811954;19;2737658;-59
2021/09/06 09:08:34;;;;;;;;;0.67;0.67;;;;;21.18;38.08;100576.59;6784467;19;2729360;-59
2021/09/06 09:11:06;;;;;;;;;1.67;1.67;;;;;20.55;38.89;100574.97;6785439;19;2721031;-60
2021/09/06 09:13:37;;;;;;;;;1.33;1.33;;;;;21.17;38.47;100566.66;6786927;19;2732470;-59
2021/09/06 09:16:07;;;;;;;;;3.33;2.00;;;;;21.43;38.27;100564.28;6786426;19;2754328;-57
2021/09/06 09:18:36;;;;;;;;;5.33;3.00;;;;;19.96;39.78;100567.44;6784894;19;2741865;-59
2021/09/06 09:21:07;;;;;;;;;1.67;1.67;;;;;21.29;38.50;100561.94;6787059;19;2741868;-59
2021/09/06 09:23:48;;;;;;;;;4.25;1.50;;;;;21.62;38.37;100563.44;6803107;19;1787772;-58
2021/09/06 09:26:17;;;;;;;;;2.40;1.40;;;;;22.25;37.96;100557.44;6811812;19;2750166;-59
2021/09/06 09:28:46;;;;;;;;;1.67;1.67;;;;;21.74;38.52;100566.88;6784871;19;2739761;-60
2021/09/06 09:31:18;;;;;;;;;2.00;2.00;;;;;22.24;38.18;100563.94;6785556;19;2741931;-59
2021/09/06 09:33:57;;;;;;;;;2.00;2.00;;;;;21.78;37.68;100562.84;6789423;19;2750170;-59
2021/09/06 09:36:34;;;;;;;;;1.33;1.33;;;;;22.09;38.36;100566.22;6789222;19;2733547;-59
2021/09/06 09:39:15;;;;;;;;;4.33;2.67;;;;;22.49;37.55;100557.81;6785901;19;2733527;-59
2021/09/06 09:41:47;;;;;;;;;0.00;0.00;;;;;22.14;37.42;100564.81;6788701;19;2729361;-59
2021/09/06 09:44:22;;;;;;;;;2.00;2.00;;;;;22.18;38.03;100559.03;6785268;19;2732501;-59
2021/09/06 09:46:58;;;;;;;;;1.00;1.00;;;;;21.74;37.27;100561.41;6789616;19;2739741;-59
2021/09/06 09:49:29;;;;;;;;;1.67;1.67;;;;;21.77;37.94;100555.66;6783960;19;2737666;-59
2021/09/06 09:51:57;;;;;;;;;6.33;3.67;;;;;21.76;37.89;100551.19;6787392;19;2745991;-58
2021/09/06 09:54:26;;;;;;;;;3.00;3.00;;;;;21.60;37.53;100549.06;6786416;19;2730378;-60
2021/09/06 09:56:54;;;;;;;;;1.00;1.00;;;;;21.40;37.56;100549.03;6786305;19;2735615;-59
2021/09/06 09:59:22;;;;;;;;;4.00;3.00;;;;;21.75;37.64;100546.72;6783002;19;2739835;-55
2021/09/06 10:02:32;;;;;;;;;2.00;2.00;;;;;22.04;38.23;100541.22;6783637;19;2734647;-59
2021/09/06 10:05:06;;;;;;;;;3.00;3.00;;;;;22.34;37.34;100546.47;6780469;19;2754336;-58
2021/09/06 10:07:40;;;;;;;;;3.00;1.33;;;;;22.90;36.97;100544.63;6760967;19;2728334;-59
2021/09/06 10:10:18;;;;;;;;;3.00;1.67;;;;;21.63;38.06;100544.16;6782050;19;2746006;-59
2021/09/06 10:13:09;;;;;;;;;1.33;1.33;;;;;22.54;37.87;100543.69;6785467;19;2733503;-59
2021/09/06 10:15:40;;;;;;;;;3.00;3.00;;;;;23.09;37.28;100542.81;6784638;19;2750185;-59
2021/09/06 10:18:19;;;;;;;;;2.33;2.33;;;;;22.80;38.40;100541.06;6782369;19;2753294;-59
2021/09/06 10:20:50;;;;;;;;;3.67;3.67;;;;;23.64;36.47;100543.56;6784914;19;2752245;-59
2021/09/06 10:23:19;;;;;;;;;1.00;1.00;;;;;22.99;37.20;100541.00;6790251;19;2724125;-59
2021/09/06 10:25:51;;;;;;;;;2.25;2.25;;;;;22.45;37.38;100545.44;6807742;19;1804470;-58
2021/09/06 10:28:31;;;;;;;;;2.40;1.80;;;;;23.14;37.32;100544.06;6812324;19;2751207;-58
2021/09/06 10:31:00;;;;;;;;;2.00;2.00;;;;;22.87;37.06;100539.47;6791420;19;2741820;-57
2021/09/06 10:33:38;;;;;;;;;1.60;1.60;;;;;23.19;37.47;100538.97;6817534;19;2743229;-59
2021/09/06 10:36:20;;;;;;;;;2.40;2.40;;;;;22.77;36.72;100535.91;6818000;19;2743908;-59
2021/09/06 10:38:53;;;;;;;;;4.67;4.00;;;;;22.96;36.69;100538.59;6788484;19;2750161;-59
2021/09/06 10:41:23;;;;;;;;;2.40;2.40;;;;;22.41;36.92;100535.81;6814139;19;2741864;-59
2021/09/06 10:43:59;;;;;;;;;2.67;2.67;;;;;22.68;37.94;100534.97;6781935;19;2751329;-59
2021/09/06 10:46:29;;;;;;;;;4.00;2.00;;;;;23.45;37.99;100530.84;6786075;19;2750170;-59
2021/09/06 10:49:06;;;;;;;;;2.14;2.14;;;;;22.32;37.69;100520.28;6834641;19;3454308;-60
2021/09/06 10:51:37;;;;;;;;;5.00;4.00;;;;;23.10;36.58;100525.38;6790261;19;2754340;-61
2021/09/06 10:54:10;;;;;;;;;3.00;3.00;;;;;23.21;37.40;100530.63;6791361;19;2733539;-60
2021/09/06 10:56:38;;;;;;;;;2.67;2.00;;;;;22.95;36.77;100525.84;6789034;19;2746002;-59
2021/09/06 10:59:06;;;;;;;;;3.00;3.00;;;;;23.00;37.49;100522.69;6788884;19;2749155;-59
2021/09/06 11:01:36;;;;;;;;;4.00;3.00;;;;;23.31;37.17;100520.44;6791532;19;2737706;-61
2021/09/06 11:04:06;;;;;;;;;4.33;3.00;;;;;23.83;35.77;100526.06;6789793;19;2750193;-60
2021/09/06 11:06:35;;;;;;;;;3.20;3.20;;;;;23.76;36.61;100514.00;6813923;19;2742926;-59
2021/09/06 11:09:04;;;;;;;;;3.00;3.00;;;;;23.76;36.46;100515.91;6787618;19;2754368;-60
2021/09/06 11:11:32;;;;;;;;;5.00;3.00;;;;;23.68;35.95;100519.41;6790433;19;2737657;-60
2021/09/06 11:14:01;;;;;;;;;3.00;2.00;;;;;23.32;35.30;100510.34;6789670;19;2750170;-60
2021/09/06 11:16:42;;;;;;;;;4.33;4.33;;;;;24.08;35.80;100513.38;6789869;19;2749132;-59
2021/09/06 11:19:14;;;;;;;;;3.40;3.40;;;;;23.51;35.21;100514.78;6815087;19;2748144;-59
2021/09/06 11:21:43;;;;;;;;;5.67;5.00;;;;;23.91;36.25;100505.19;6758581;19;2746006;-59